Time,TemperatureF,DewpointF,PressureIn,WindDirection,WindDirectionDegrees,WindSpeedMPH,WindSpeedGustMPH,Humidity,HourlyPrecipIn,Conditions,Clouds,dailyrainin,SoftwareType,DateUTC
2013-03-27 00:00:00,34.2,24.0,30.30,NW,305,2.3,0.0,66,0.00,FEW,,0.00,WeatherDisplay:10.37,2013-03-27 04:00:00,
2013-03-27 00:01:00,34.1,23.9,30.30,NW,315,3.5,3.5,66,0.00,CLR,,0.00,WeatherDisplay:10.37,2013-03-27 04:01:00,
2013-03-27 00:06:00,34.0,23.8,30.30,NW,318,3.5,3.5,66,0.00,CLR,,0.00,WeatherDisplay:10.37,2013-03-27 04:06:00,
2013-03-27 00:11:00,33.9,24.1,30.30,NNW,336,1.2,1.2,67,0.00,CLR,,0.00,WeatherDisplay:10.37,2013-03-27 04:11:00,
2013-03-27 00:16:00,33.8,24.0,30.30,NNW,327,3.5,3.5,67,0.00,CLR,,0.00,WeatherDisplay:10.37,2013-03-27 04:16:00,
2013-03-27 00:21:00,33.7,23.9,30.30,NW,316,1.2,1.2,67,0.00,CLR,,0.00,WeatherDisplay:10.37,2013-03-27 04:21:00,
2013-03-27 00:26:00,33.5,24.1,30.30,NW,318,1.2,1.2,68,0.00,CLR,,0.00,WeatherDisplay:10.37,2013-03-27 04:26:00,
2013-03-27 00:31:00,33.4,24.0,30.30,NW,320,2.3,2.3,68,0.00,CLR,,0.00,WeatherDisplay:10.37,2013-03-27 04:31:00,
2013-03-27 00:36:00,33.2,23.8,30.30,North,5,3.5,3.5,68,0.00,CLR,,0.00,WeatherDisplay:10.37,2013-03-27 04:36:00,
2013-03-27 00:41:00,33.1,24.0,30.30,NNW,327,3.5,3.5,69,0.00,CLR,,0.00,WeatherDisplay:10.37,2013-03-27 04:41:00,
2013-03-27 00:47:00,33.0,24.3,30.30,NW,317,3.5,3.5,70,0.00,CLR,,0.00,WeatherDisplay:10.37,2013-03-27 04:47:00,
2013-03-27 00:52:00,32.9,24.2,30.30,WNW,300,2.3,2.3,70,0.00,CLR,,0.00,WeatherDisplay:10.37,2013-03-27 04:52:00,
2013-03-27 00:57:00,32.8,24.1,30.30,WNW,301,1.2,1.2,70,0.00,CLR,,0.00,WeatherDisplay:10.37,2013-03-27 04:57:00,
2013-03-27 01:02:00,32.7,24.3,30.30,NW,312,3.5,3.5,71,0.00,CLR,,0.00,WeatherDisplay:10.37,2013-03-27 05:02:00,
2013-03-27 01:07:00,32.6,24.6,30.30,WNW,297,2.3,2.3,72,0.00,CLR,,0.00,WeatherDisplay:10.37,2013-03-27 05:07:00,
2013-03-27 01:12:00,32.6,24.6,30.30,WNW,297,2.3,2.3,72,0.00,CLR,,0.00,WeatherDisplay:10.37,2013-03-27 05:12:00,
2013-03-27 01:17:00,32.5,24.5,30.30,NW,317,3.5,3.5,72,0.00,CLR,,0.00,WeatherDisplay:10.37,2013-03-27 05:17:00,
2013-03-27 01:22:00,32.5,24.1,30.30,NW,323,2.3,2.3,71,0.00,CLR,,0.00,WeatherDisplay:10.37,2013-03-27 05:22:00,
2013-03-27 01:27:00,32.5,24.1,30.29,NW,324,1.0,2.0,71,0.00,CLR,,0.00,WeatherDisplay:10.37,2013-03-27 05:27:00,
2013-03-27 01:32:00,32.4,24.4,30.29,NW,317,2.3,2.3,72,0.00,CLR,,0.00,WeatherDisplay:10.37,2013-03-27 05:32:00,
2013-03-27 01:37:00,32.3,24.3,30.29,NW,308,3.5,3.5,72,0.00,CLR,,0.00,WeatherDisplay:10.37,2013-03-27 05:37:00,
2013-03-27 01:42:00,32.2,24.2,30.28,NW,321,3.5,3.5,72,0.00,CLR,,0.00,WeatherDisplay:10.37,2013-03-27 05:42:00,
2013-03-27 01:47:00,32.1,24.4,30.28,WNW,297,3.5,3.5,73,0.00,CLR,,0.00,WeatherDisplay:10.37,2013-03-27 05:47:00,
2013-03-27 01:52:00,32.1,24.4,30.29,West,274,2.3,2.3,73,0.00,CLR,,0.00,WeatherDisplay:10.37,2013-03-27 05:52:00,
2013-03-27 01:57:00,32.0,24.3,30.29,West,269,3.5,3.5,73,0.00,CLR,,0.00,WeatherDisplay:10.37,2013-03-27 05:57:00,
2013-03-27 02:02:00,31.9,24.6,30.29,West,270,2.3,2.3,74,0.00,CLR,,0.00,WeatherDisplay:10.37,2013-03-27 06:02:00,
2013-03-27 02:07:00,31.9,24.6,30.29,West,270,0.0,0.0,74,0.00,CLR,,0.00,WeatherDisplay:10.37,2013-03-27 06:07:00,
2013-03-27 02:12:00,31.7,24.4,30.29,North,5,3.0,3.0,74,0.00,CLR,,0.00,WeatherDisplay:10.37,2013-03-27 06:12:00,
2013-03-27 02:17:00,31.7,24.7,30.28,North,355,0.0,0.0,75,0.00,CLR,,0.00,WeatherDisplay:10.37,2013-03-27 06:17:00,
2013-03-27 02:22:00,31.5,24.5,30.28,NW,323,3.5,3.5,75,0.00,CLR,,0.00,WeatherDisplay:10.37,2013-03-27 06:22:00,
2013-03-27 02:27:00,31.4,24.7,30.27,NNW,327,2.3,2.3,76,0.00,CLR,,0.00,WeatherDisplay:10.37,2013-03-27 06:27:00,
2013-03-27 02:32:00,31.4,24.7,30.28,NW,312,2.3,2.3,76,0.00,CLR,,0.00,WeatherDisplay:10.37,2013-03-27 06:32:00,
2013-03-27 02:37:00,31.3,24.6,30.28,West,259,3.0,3.0,76,0.00,CLR,,0.00,WeatherDisplay:10.37,2013-03-27 06:37:00,
2013-03-27 02:42:00,31.2,24.5,30.27,NNW,332,2.3,2.3,76,0.00,CLR,,0.00,WeatherDisplay:10.37,2013-03-27 06:42:00,
2013-03-27 02:47:00,31.1,24.4,30.28,West,279,2.3,2.3,76,0.00,CLR,,0.00,WeatherDisplay:10.37,2013-03-27 06:47:00,
2013-03-27 02:52:00,31.1,24.4,30.28,NW,306,1.2,1.2,76,0.00,CLR,,0.00,WeatherDisplay:10.37,2013-03-27 06:52:00,
2013-03-27 02:57:00,31.1,24.7,30.28,NW,306,2.3,2.3,77,0.00,CLR,,0.00,WeatherDisplay:10.37,2013-03-27 06:57:00,
2013-03-27 03:02:00,31.1,24.7,30.28,West,275,3.5,3.5,77,0.00,CLR,,0.00,WeatherDisplay:10.37,2013-03-27 07:02:00,
2013-03-27 03:07:00,31.1,24.7,30.28,NW,304,1.2,1.2,77,0.00,CLR,,0.00,WeatherDisplay:10.37,2013-03-27 07:07:00,
2013-03-27 03:12:00,31.0,24.6,30.28,West,275,3.5,3.5,77,0.00,CLR,,0.00,WeatherDisplay:10.37,2013-03-27 07:12:00,
2013-03-27 03:17:00,31.0,24.6,30.28,NW,306,1.2,1.2,77,0.00,CLR,,0.00,WeatherDisplay:10.37,2013-03-27 07:17:00,
2013-03-27 03:22:00,31.0,24.6,30.28,WSW,240,2.3,2.3,77,0.00,CLR,,0.00,WeatherDisplay:10.37,2013-03-27 07:22:00,
2013-03-27 03:27:00,31.0,24.9,30.27,WSW,241,1.2,1.2,78,0.00,CLR,,0.00,WeatherDisplay:10.37,2013-03-27 07:27:00,
2013-03-27 03:32:00,30.9,24.8,30.28,WNW,294,2.0,2.0,78,0.00,CLR,,0.00,WeatherDisplay:10.37,2013-03-27 07:32:00,
2013-03-27 03:37:00,30.8,24.7,30.27,NW,318,2.3,2.3,78,0.00,CLR,,0.00,WeatherDisplay:10.37,2013-03-27 07:37:00,
2013-03-27 03:42:00,30.8,24.7,30.27,NW,310,2.3,2.3,78,0.00,CLR,,0.00,WeatherDisplay:10.37,2013-03-27 07:42:00,
2013-03-27 03:47:00,30.7,25.0,30.27,NW,309,3.0,3.0,79,0.00,CLR,,0.00,WeatherDisplay:10.37,2013-03-27 07:47:00,
2013-03-27 03:52:00,30.7,25.0,30.27,NW,319,2.3,2.3,79,0.00,CLR,,0.00,WeatherDisplay:10.37,2013-03-27 07:52:00,
2013-03-27 03:57:00,30.7,25.0,30.27,NW,314,3.5,3.5,79,0.00,CLR,,0.00,WeatherDisplay:10.37,2013-03-27 07:57:00,
2013-03-27 04:02:00,30.6,24.9,30.27,NW,309,3.5,3.5,79,0.00,CLR,,0.00,WeatherDisplay:10.37,2013-03-27 08:02:00,
2013-03-27 04:07:00,30.6,24.9,30.27,NW,309,1.2,1.2,79,0.00,CLR,,0.00,WeatherDisplay:10.37,2013-03-27 08:07:00,
2013-03-27 04:13:00,30.5,25.1,30.27,West,271,2.3,2.3,80,0.00,CLR,,0.00,WeatherDisplay:10.37,2013-03-27 08:13:00,
2013-03-27 04:18:00,30.4,25.0,30.28,WNW,286,1.2,1.2,80,0.00,CLR,,0.00,WeatherDisplay:10.37,2013-03-27 08:18:00,
2013-03-27 04:23:00,30.4,25.0,30.27,NW,307,3.5,3.5,80,0.00,CLR,,0.00,WeatherDisplay:10.37,2013-03-27 08:23:00,
2013-03-27 04:28:00,30.3,24.9,30.27,WNW,299,2.3,2.3,80,0.00,CLR,,0.00,WeatherDisplay:10.37,2013-03-27 08:28:00,
2013-03-27 04:33:00,30.3,24.9,30.27,WNW,299,1.2,1.2,80,0.00,CLR,,0.00,WeatherDisplay:10.37,2013-03-27 08:33:00,
2013-03-27 04:38:00,30.2,24.8,30.27,West,280,2.3,0.0,80,0.00,CLR,,0.00,WeatherDisplay:10.37,2013-03-27 08:38:00,
2013-03-27 04:43:00,30.2,24.8,30.27,West,280,1.2,1.2,80,0.00,CLR,,0.00,WeatherDisplay:10.37,2013-03-27 08:43:00,
2013-03-27 04:48:00,30.1,25.0,30.27,West,279,1.2,1.2,81,0.00,CLR,,0.00,WeatherDisplay:10.37,2013-03-27 08:48:00,
2013-03-27 04:53:00,30.0,24.9,30.27,West,277,2.0,2.0,81,0.00,CLR,,0.00,WeatherDisplay:10.37,2013-03-27 08:53:00,
2013-03-27 04:58:00,29.9,24.8,30.27,WSW,250,2.0,2.0,81,0.00,CLR,,0.00,WeatherDisplay:10.37,2013-03-27 08:58:00,
2013-03-27 05:03:00,29.9,24.8,30.28,SW,225,2.3,2.3,81,0.00,CLR,,0.00,WeatherDisplay:10.37,2013-03-27 09:03:00,
2013-03-27 05:08:00,29.8,25.0,30.28,West,281,2.3,2.3,82,0.00,CLR,,0.00,WeatherDisplay:10.37,2013-03-27 09:08:00,
2013-03-27 05:13:00,29.8,25.0,30.28,West,263,2.0,2.0,82,0.00,CLR,,0.00,WeatherDisplay:10.37,2013-03-27 09:13:00,
2013-03-27 05:18:00,29.7,24.9,30.28,WSW,251,2.3,2.3,82,0.00,CLR,,0.00,WeatherDisplay:10.37,2013-03-27 09:18:00,
2013-03-27 05:23:00,29.7,24.9,30.28,West,274,0.0,0.0,82,0.00,CLR,,0.00,WeatherDisplay:10.37,2013-03-27 09:23:00,
2013-03-27 05:28:00,29.7,24.9,30.28,West,268,3.5,3.5,82,0.00,CLR,,0.00,WeatherDisplay:10.37,2013-03-27 09:28:00,
2013-03-27 05:33:00,29.7,24.9,30.28,SW,229,2.3,2.3,82,0.00,CLR,,0.00,WeatherDisplay:10.37,2013-03-27 09:33:00,
2013-03-27 05:38:00,29.7,24.9,30.28,West,277,1.2,1.2,82,0.00,CLR,,0.00,WeatherDisplay:10.37,2013-03-27 09:38:00,
2013-03-27 05:43:00,29.7,24.9,30.29,West,269,2.3,2.3,82,0.00,CLR,,0.00,WeatherDisplay:10.37,2013-03-27 09:43:00,
2013-03-27 05:48:00,29.6,24.8,30.29,West,280,0.0,0.2,82,0.00,CLR,,0.00,WeatherDisplay:10.37,2013-03-27 09:48:00,
2013-03-27 05:53:00,29.7,24.9,30.29,WNW,300,3.5,3.5,82,0.00,CLR,,0.00,WeatherDisplay:10.37,2013-03-27 09:53:00,
2013-03-27 05:58:00,29.7,24.9,30.29,WNW,287,2.3,2.3,82,0.00,CLR,,0.00,WeatherDisplay:10.37,2013-03-27 09:58:00,
2013-03-27 06:03:00,29.7,24.9,30.29,WNW,284,2.0,2.0,82,0.00,CLR,,0.00,WeatherDisplay:10.37,2013-03-27 10:03:00,
2013-03-27 06:08:00,29.7,24.9,30.29,West,264,2.3,2.3,82,0.00,CLR,,0.00,WeatherDisplay:10.37,2013-03-27 10:08:00,
2013-03-27 06:13:00,29.7,25.2,30.29,West,274,2.3,2.3,83,0.00,CLR,,0.00,WeatherDisplay:10.37,2013-03-27 10:13:00,
2013-03-27 06:18:00,29.7,25.2,30.29,WNW,286,0.0,0.0,83,0.00,CLR,,0.00,WeatherDisplay:10.37,2013-03-27 10:18:00,
2013-03-27 06:23:00,29.7,25.2,30.30,WNW,286,1.2,1.2,83,0.00,CLR,,0.00,WeatherDisplay:10.37,2013-03-27 10:23:00,
2013-03-27 06:28:00,29.7,25.2,30.30,WSW,251,2.0,2.0,83,0.00,CLR,,0.00,WeatherDisplay:10.37,2013-03-27 10:28:00,
2013-03-27 06:33:00,29.6,25.1,30.30,WSW,251,1.2,1.2,83,0.00,CLR,,0.00,WeatherDisplay:10.37,2013-03-27 10:33:00,
2013-03-27 06:38:00,29.6,25.1,30.30,WSW,251,0.0,0.0,83,0.00,CLR,,0.00,WeatherDisplay:10.37,2013-03-27 10:38:00,
2013-03-27 06:43:00,29.5,25.0,30.30,WSW,251,0.0,0.2,83,0.00,CLR,,0.00,WeatherDisplay:10.37,2013-03-27 10:43:00,
2013-03-27 06:48:00,29.5,25.0,30.30,WSW,251,2.3,2.3,83,0.00,CLR,,0.00,WeatherDisplay:10.37,2013-03-27 10:48:00,
2013-03-27 06:53:00,29.4,25.2,30.30,WSW,251,0.0,0.0,84,0.00,CLR,,0.00,WeatherDisplay:10.37,2013-03-27 10:53:00,
2013-03-27 06:58:00,29.4,25.2,30.30,WSW,251,0.0,0.0,84,0.00,CLR,,0.00,WeatherDisplay:10.37,2013-03-27 10:58:00,
2013-03-27 07:03:00,29.3,25.1,30.31,WSW,251,1.2,1.2,84,0.00,CLR,,0.00,WeatherDisplay:10.37,2013-03-27 11:03:00,
2013-03-27 07:08:00,29.3,25.1,30.31,WSW,251,1.2,1.2,84,0.00,CLR,,0.00,WeatherDisplay:10.37,2013-03-27 11:08:00,
2013-03-27 07:13:00,29.3,25.1,30.31,WSW,251,2.3,2.3,84,0.00,CLR,,0.00,WeatherDisplay:10.37,2013-03-27 11:13:00,
2013-03-27 07:18:00,29.2,25.0,30.31,WSW,252,1.0,0.0,84,0.00,CLR,,0.00,WeatherDisplay:10.37,2013-03-27 11:18:00,
2013-03-27 07:23:00,29.2,25.0,30.31,NW,313,2.3,2.3,84,0.00,CLR,,0.00,WeatherDisplay:10.37,2013-03-27 11:23:00,
2013-03-27 07:28:00,29.1,25.2,30.31,NW,309,1.2,1.2,85,0.00,CLR,,0.00,WeatherDisplay:10.37,2013-03-27 11:28:00,
2013-03-27 07:33:00,29.1,25.2,30.31,West,263,1.2,1.2,85,0.00,CLR,,0.00,WeatherDisplay:10.37,2013-03-27 11:33:00,
2013-03-27 07:38:00,29.0,25.1,30.31,WNW,290,1.2,1.2,85,0.00,CLR,,0.00,WeatherDisplay:10.37,2013-03-27 11:38:00,
2013-03-27 07:43:00,29.0,25.1,30.31,WNW,290,2.3,2.3,85,0.00,CLR,,0.00,WeatherDisplay:10.37,2013-03-27 11:43:00,
2013-03-27 07:48:00,29.0,25.3,30.31,WNW,290,0.0,0.0,86,0.00,CLR,,0.00,WeatherDisplay:10.37,2013-03-27 11:48:00,
2013-03-27 07:53:00,29.0,25.3,30.31,WNW,290,2.3,0.0,86,0.00,CLR,,0.00,WeatherDisplay:10.37,2013-03-27 11:53:00,
2013-03-27 07:58:00,29.0,25.3,30.32,WNW,290,0.0,0.0,86,0.00,CLR,,0.00,WeatherDisplay:10.37,2013-03-27 11:58:00,
2013-03-27 08:03:00,29.0,25.3,30.32,WNW,290,1.2,0.0,86,0.00,CLR,,0.00,WeatherDisplay:10.37,2013-03-27 12:03:00,
2013-03-27 08:08:00,29.1,25.4,30.32,WNW,290,0.0,0.0,86,0.00,CLR,,0.00,WeatherDisplay:10.37,2013-03-27 12:08:00,
2013-03-27 08:13:00,29.2,25.5,30.32,WNW,290,1.0,1.0,86,0.00,CLR,,0.00,WeatherDisplay:10.37,2013-03-27 12:13:00,
2013-03-27 08:18:00,29.2,25.5,30.33,WNW,290,2.0,2.0,86,0.00,CLR,,0.00,WeatherDisplay:10.37,2013-03-27 12:18:00,
2013-03-27 08:23:00,29.4,25.7,30.33,WNW,290,1.2,1.2,86,0.00,CLR,,0.00,WeatherDisplay:10.37,2013-03-27 12:23:00,
2013-03-27 08:28:00,29.7,25.7,30.33,NNW,334,2.3,2.3,85,0.00,CLR,,0.00,WeatherDisplay:10.37,2013-03-27 12:28:00,
2013-03-27 08:33:00,30.1,26.1,30.33,NW,324,6.0,6.0,85,0.00,CLR,,0.00,WeatherDisplay:10.37,2013-03-27 12:33:00,
2013-03-27 08:38:00,30.6,26.1,30.33,NNW,333,3.5,3.5,83,0.00,CLR,,0.00,WeatherDisplay:10.37,2013-03-27 12:38:00,
2013-03-27 08:43:00,31.0,26.1,30.33,NNW,331,4.6,4.6,82,0.00,CLR,,0.00,WeatherDisplay:10.37,2013-03-27 12:43:00,
2013-03-27 08:49:00,31.6,26.1,30.33,NNE,28,3.5,3.5,80,0.00,CLR,,0.00,WeatherDisplay:10.37,2013-03-27 12:49:00,
2013-03-27 08:54:00,32.1,26.6,30.34,NNW,333,3.5,3.5,80,0.00,CLR,,0.00,WeatherDisplay:10.37,2013-03-27 12:54:00,
2013-03-27 08:59:00,32.5,26.4,30.34,North,11,3.5,3.5,78,0.00,CLR,,0.00,WeatherDisplay:10.37,2013-03-27 12:59:00,
2013-03-27 09:04:00,32.9,26.5,30.34,NNW,340,3.5,3.5,77,0.00,CLR,,0.00,WeatherDisplay:10.37,2013-03-27 13:04:00,
2013-03-27 09:09:00,33.4,26.6,30.34,NNW,334,4.6,4.6,76,0.00,CLR,,0.00,WeatherDisplay:10.37,2013-03-27 13:09:00,
2013-03-27 09:14:00,33.8,26.7,30.34,ENE,63,4.6,4.6,75,0.00,CLR,,0.00,WeatherDisplay:10.37,2013-03-27 13:14:00,
2013-03-27 09:19:00,34.2,26.8,30.34,NW,322,3.5,3.5,74,0.00,CLR,,0.00,WeatherDisplay:10.37,2013-03-27 13:19:00,
2013-03-27 09:24:00,34.8,26.4,30.35,NW,320,5.0,5.0,71,0.00,CLR,,0.00,WeatherDisplay:10.37,2013-03-27 13:24:00,
2013-03-27 09:29:00,35.3,26.5,30.35,NNE,12,3.0,3.0,70,0.00,CLR,,0.00,WeatherDisplay:10.37,2013-03-27 13:29:00,
2013-03-27 09:34:00,35.7,26.9,30.35,NW,316,5.8,5.8,70,0.00,CLR,,0.00,WeatherDisplay:10.37,2013-03-27 13:34:00,
2013-03-27 09:39:00,36.1,26.2,30.35,NW,314,4.0,4.0,67,0.00,CLR,,0.00,WeatherDisplay:10.37,2013-03-27 13:39:00,
2013-03-27 09:44:00,36.4,26.1,30.35,NW,323,4.6,4.6,66,0.00,CLR,,0.00,WeatherDisplay:10.37,2013-03-27 13:44:00,
2013-03-27 09:49:00,36.5,25.8,30.35,West,265,3.5,3.5,65,0.00,CLR,,0.00,WeatherDisplay:10.37,2013-03-27 13:49:00,
2013-03-27 09:54:00,36.8,25.8,30.35,NW,311,4.6,4.6,64,0.00,CLR,,0.00,WeatherDisplay:10.37,2013-03-27 13:54:00,
2013-03-27 09:59:00,37.0,25.9,30.36,NW,315,4.6,4.6,64,0.00,CLR,,0.00,WeatherDisplay:10.37,2013-03-27 13:59:00,
2013-03-27 10:04:00,37.4,25.9,30.36,NNW,346,5.8,5.8,63,0.00,CLR,,0.00,WeatherDisplay:10.37,2013-03-27 14:04:00,
2013-03-27 10:09:00,37.8,25.9,30.35,NNW,327,3.5,3.5,62,0.00,CLR,,0.00,WeatherDisplay:10.37,2013-03-27 14:09:00,
2013-03-27 10:14:00,38.0,26.1,30.35,NW,323,3.5,3.5,62,0.00,CLR,,0.00,WeatherDisplay:10.37,2013-03-27 14:14:00,
2013-03-27 10:19:00,38.4,25.7,30.35,NNW,329,3.5,3.5,60,0.00,CLR,,0.00,WeatherDisplay:10.37,2013-03-27 14:19:00,
2013-03-27 10:24:00,38.7,24.3,30.35,North,350,5.8,5.8,56,0.00,CLR,,0.00,WeatherDisplay:10.37,2013-03-27 14:24:00,
2013-03-27 10:29:00,38.9,24.1,30.35,NW,313,6.0,6.0,55,0.00,CLR,,0.00,WeatherDisplay:10.37,2013-03-27 14:29:00,
2013-03-27 10:34:00,39.3,23.6,30.35,NNW,329,11.0,11.0,53,0.00,CLR,,0.00,WeatherDisplay:10.37,2013-03-27 14:34:00,
2013-03-27 10:39:00,39.6,23.9,30.35,NW,325,8.1,8.1,53,0.00,CLR,,0.00,WeatherDisplay:10.37,2013-03-27 14:39:00,
2013-03-27 10:44:00,40.0,23.8,30.35,NE,38,8.1,8.1,52,0.00,CLR,,0.00,WeatherDisplay:10.37,2013-03-27 14:44:00,
2013-03-27 10:49:00,40.5,23.3,30.34,ENE,67,2.3,2.3,50,0.00,CLR,,0.00,WeatherDisplay:10.37,2013-03-27 14:49:00,
2013-03-27 10:54:00,41.0,23.3,30.34,WNW,294,5.8,5.8,49,0.00,CLR,,0.00,WeatherDisplay:10.37,2013-03-27 14:54:00,
2013-03-27 10:59:00,41.3,23.6,30.34,SW,225,5.8,5.8,49,0.00,CLR,,0.00,WeatherDisplay:10.37,2013-03-27 14:59:00,
2013-03-27 11:04:00,41.5,23.2,30.35,North,5,6.9,6.9,48,0.00,CLR,,0.00,WeatherDisplay:10.37,2013-03-27 15:04:00,
2013-03-27 11:09:00,41.6,23.8,30.35,NW,324,7.0,7.0,49,0.00,CLR,,0.00,WeatherDisplay:10.37,2013-03-27 15:09:00,
2013-03-27 11:14:00,41.8,24.5,30.35,NW,320,5.8,5.8,50,0.00,FEW,,0.00,WeatherDisplay:10.37,2013-03-27 15:14:00,
2013-03-27 11:19:00,42.2,24.9,30.35,NNE,22,4.6,4.6,50,0.00,FEW,,0.00,WeatherDisplay:10.37,2013-03-27 15:19:00,
2013-03-27 11:24:00,42.5,24.2,30.35,West,269,5.8,5.8,48,0.00,FEW,,0.00,WeatherDisplay:10.37,2013-03-27 15:24:00,
2013-03-27 11:29:00,43.0,24.6,30.34,NW,323,6.0,6.0,48,0.00,FEW,,0.00,WeatherDisplay:10.37,2013-03-27 15:29:00,
2013-03-27 11:34:00,43.1,24.2,30.34,NNW,331,3.5,3.5,47,0.00,FEW,,0.00,WeatherDisplay:10.37,2013-03-27 15:34:00,
2013-03-27 11:39:00,43.3,23.9,30.34,WSW,257,3.5,3.5,46,0.00,FEW,,0.00,WeatherDisplay:10.37,2013-03-27 15:39:00,
2013-03-27 11:44:00,43.6,24.2,30.34,WNW,302,5.8,5.8,46,0.00,FEW,,0.00,WeatherDisplay:10.37,2013-03-27 15:44:00,
2013-03-27 11:49:00,44.3,25.3,30.35,WNW,291,7.0,7.0,47,0.00,FEW,,0.00,WeatherDisplay:10.37,2013-03-27 15:49:00,
2013-03-27 11:54:00,44.7,25.2,30.35,NW,316,6.9,6.9,46,0.00,FEW,,0.00,WeatherDisplay:10.37,2013-03-27 15:54:00,
2013-03-27 11:59:00,45.0,24.9,30.34,WNW,287,3.5,3.5,45,0.00,FEW,,0.00,WeatherDisplay:10.37,2013-03-27 15:59:00,
2013-03-27 12:04:00,45.1,25.0,30.35,NW,308,6.9,6.9,45,0.00,FEW,,0.00,WeatherDisplay:10.37,2013-03-27 16:04:00,
2013-03-27 12:09:00,45.1,25.5,30.34,NW,313,6.9,6.9,46,0.00,FEW,,0.00,WeatherDisplay:10.37,2013-03-27 16:09:00,
2013-03-27 12:14:00,45.3,26.2,30.34,West,276,6.9,6.9,47,0.00,FEW,,0.00,WeatherDisplay:10.37,2013-03-27 16:14:00,
2013-03-27 12:19:00,45.6,25.5,30.34,NW,315,5.8,5.8,45,0.00,FEW,,0.00,WeatherDisplay:10.37,2013-03-27 16:19:00,
2013-03-27 12:24:00,45.5,25.4,30.34,North,355,8.1,8.1,45,0.00,FEW,,0.00,WeatherDisplay:10.37,2013-03-27 16:24:00,
2013-03-27 12:29:00,45.5,26.4,30.34,NNW,333,4.6,4.6,47,0.00,FEW,,0.00,WeatherDisplay:10.37,2013-03-27 16:29:00,
2013-03-27 12:34:00,45.9,25.7,30.34,North,9,8.1,8.1,45,0.00,FEW,,0.00,WeatherDisplay:10.37,2013-03-27 16:34:00,
2013-03-27 12:39:00,45.9,25.2,30.34,WNW,299,8.1,8.1,44,0.00,FEW,,0.00,WeatherDisplay:10.37,2013-03-27 16:39:00,
2013-03-27 12:44:00,45.9,24.6,30.34,West,271,5.8,5.8,43,0.00,FEW,,0.00,WeatherDisplay:10.37,2013-03-27 16:44:00,
2013-03-27 12:49:00,46.1,24.8,30.33,NNW,347,9.2,9.2,43,0.00,FEW,,0.00,WeatherDisplay:10.37,2013-03-27 16:49:00,
2013-03-27 12:54:00,46.3,26.1,30.33,WNW,292,10.4,10.4,45,0.00,FEW,,0.00,WeatherDisplay:10.37,2013-03-27 16:54:00,
2013-03-27 12:59:00,46.7,24.8,30.33,NNW,334,8.1,8.1,42,0.00,FEW,,0.00,WeatherDisplay:10.37,2013-03-27 16:59:00,
2013-03-27 13:04:00,46.9,24.4,30.33,North,360,8.1,8.1,41,0.00,FEW,,0.00,WeatherDisplay:10.37,2013-03-27 17:04:00,
2013-03-27 13:09:00,47.2,25.8,30.33,NNE,24,6.0,6.0,43,0.00,FEW,,0.00,WeatherDisplay:10.37,2013-03-27 17:09:00,
2013-03-27 13:14:00,47.6,25.6,30.33,NNW,339,10.4,10.4,42,0.00,CLR,,0.00,WeatherDisplay:10.37,2013-03-27 17:14:00,
2013-03-27 13:19:00,48.0,26.0,30.33,NW,317,6.9,6.9,42,0.00,CLR,,0.00,WeatherDisplay:10.37,2013-03-27 17:19:00,
2013-03-27 13:24:00,48.4,25.8,30.33,North,5,6.9,6.9,41,0.00,CLR,,0.00,WeatherDisplay:10.37,2013-03-27 17:24:00,
2013-03-27 13:29:00,48.4,25.8,30.32,NW,311,4.6,4.6,41,0.00,CLR,,0.00,WeatherDisplay:10.37,2013-03-27 17:29:00,
2013-03-27 13:34:00,48.7,27.2,30.32,West,269,3.5,3.5,43,0.00,CLR,,0.00,WeatherDisplay:10.37,2013-03-27 17:34:00,
2013-03-27 13:39:00,49.3,26.0,30.32,WSW,257,5.8,5.8,40,0.00,CLR,,0.00,WeatherDisplay:10.37,2013-03-27 17:39:00,
2013-03-27 13:44:00,49.5,25.5,30.32,NNE,12,8.1,8.1,39,0.00,CLR,,0.00,WeatherDisplay:10.37,2013-03-27 17:44:00,
2013-03-27 13:49:00,49.5,26.1,30.32,NNW,333,3.5,3.5,40,0.00,CLR,,0.00,WeatherDisplay:10.37,2013-03-27 17:49:00,
2013-03-27 13:54:00,50.1,27.3,30.32,NW,318,5.8,5.8,41,0.00,CLR,,0.00,WeatherDisplay:10.37,2013-03-27 17:54:00,
2013-03-27 13:59:00,50.1,25.5,30.31,West,262,6.9,6.9,38,0.00,CLR,,0.00,WeatherDisplay:10.37,2013-03-27 17:59:00,
2013-03-27 14:04:00,50.3,26.3,30.31,SW,235,9.2,9.2,39,0.00,CLR,,0.00,WeatherDisplay:10.37,2013-03-27 18:04:00,
2013-03-27 14:09:00,49.9,27.1,30.31,WSW,247,5.8,5.8,41,0.00,CLR,,0.00,WeatherDisplay:10.37,2013-03-27 18:09:00,
2013-03-27 14:14:00,50.2,26.8,30.31,NW,308,11.5,11.5,40,0.00,CLR,,0.00,WeatherDisplay:10.37,2013-03-27 18:14:00,
2013-03-27 14:19:00,50.4,27.0,30.31,NNW,348,5.8,5.8,40,0.00,CLR,,0.00,WeatherDisplay:10.37,2013-03-27 18:19:00,
2013-03-27 14:24:00,50.5,25.8,30.31,NW,309,9.2,9.2,38,0.00,CLR,,0.00,WeatherDisplay:10.37,2013-03-27 18:24:00,
2013-03-27 14:29:00,50.6,27.7,30.30,WNW,285,5.8,5.8,41,0.00,CLR,,0.00,WeatherDisplay:10.37,2013-03-27 18:29:00,
2013-03-27 14:34:00,50.8,26.7,30.30,WSW,258,9.0,9.0,39,0.00,CLR,,0.00,WeatherDisplay:10.37,2013-03-27 18:34:00,
2013-03-27 14:39:00,51.0,25.0,30.30,WNW,289,8.1,8.1,36,0.00,CLR,,0.00,WeatherDisplay:10.37,2013-03-27 18:39:00,
2013-03-27 14:44:00,50.9,26.2,30.30,NNW,338,4.6,4.6,38,0.00,CLR,,0.00,WeatherDisplay:10.37,2013-03-27 18:44:00,
2013-03-27 14:49:00,50.9,25.5,30.30,NNW,333,9.0,9.0,37,0.00,CLR,,0.00,WeatherDisplay:10.37,2013-03-27 18:49:00,
2013-03-27 14:54:00,51.1,26.3,30.30,NNE,27,6.0,6.0,38,0.00,CLR,,0.00,WeatherDisplay:10.37,2013-03-27 18:54:00,
2013-03-27 14:59:00,51.3,26.5,30.30,NW,325,9.2,9.2,38,0.00,CLR,,0.00,WeatherDisplay:10.37,2013-03-27 18:59:00,
2013-03-27 15:04:00,51.3,25.9,30.29,NNW,338,10.4,10.4,37,0.00,CLR,,0.00,WeatherDisplay:10.37,2013-03-27 19:04:00,
2013-03-27 15:09:00,51.2,25.8,30.29,NNW,344,5.8,5.8,37,0.00,CLR,,0.00,WeatherDisplay:10.37,2013-03-27 19:09:00,
2013-03-27 15:14:00,51.4,26.0,30.29,NNW,329,6.9,6.9,37,0.00,CLR,,0.00,WeatherDisplay:10.37,2013-03-27 19:14:00,
2013-03-27 15:19:00,51.3,24.5,30.29,NW,314,8.1,8.1,35,0.00,CLR,,0.00,WeatherDisplay:10.37,2013-03-27 19:19:00,
2013-03-27 15:24:00,51.1,25.0,30.29,WNW,300,5.8,5.8,36,0.00,CLR,,0.00,WeatherDisplay:10.37,2013-03-27 19:24:00,
2013-03-27 15:29:00,51.0,24.3,30.28,NW,304,6.9,6.9,35,0.00,CLR,,0.00,WeatherDisplay:10.37,2013-03-27 19:29:00,
2013-03-27 15:34:00,51.1,26.3,30.28,NE,49,6.9,6.9,38,0.00,CLR,,0.00,WeatherDisplay:10.37,2013-03-27 19:34:00,
2013-03-27 15:39:00,51.5,26.1,30.28,ENE,67,8.1,8.1,37,0.00,CLR,,0.00,WeatherDisplay:10.37,2013-03-27 19:39:00,
2013-03-27 15:44:00,51.6,24.8,30.28,WSW,244,4.0,4.0,35,0.00,CLR,,0.00,WeatherDisplay:10.37,2013-03-27 19:44:00,
2013-03-27 15:49:00,51.7,26.2,30.27,NNW,336,8.1,8.1,37,0.00,CLR,,0.00,WeatherDisplay:10.37,2013-03-27 19:49:00,
2013-03-27 15:54:00,51.7,26.9,30.27,NNW,336,6.9,6.9,38,0.00,CLR,,0.00,WeatherDisplay:10.37,2013-03-27 19:54:00,
2013-03-27 15:59:00,51.7,25.6,30.27,WNW,282,8.1,8.1,36,0.00,CLR,,0.00,WeatherDisplay:10.37,2013-03-27 19:59:00,
2013-03-27 16:04:00,51.7,25.6,30.27,NNW,338,3.5,3.5,36,0.00,CLR,,0.00,WeatherDisplay:10.37,2013-03-27 20:04:00,
2013-03-27 16:09:00,51.9,27.1,30.27,WNW,293,3.5,0.0,38,0.00,CLR,,0.00,WeatherDisplay:10.37,2013-03-27 20:09:00,
2013-03-27 16:14:00,51.8,26.3,30.26,WSW,248,8.0,8.0,37,0.00,CLR,,0.00,WeatherDisplay:10.37,2013-03-27 20:14:00,
2013-03-27 16:19:00,51.8,26.3,30.26,WNW,286,3.5,3.5,37,0.00,CLR,,0.00,WeatherDisplay:10.37,2013-03-27 20:19:00,
2013-03-27 16:24:00,51.9,25.1,30.26,NW,321,3.5,3.5,35,0.00,CLR,,0.00,WeatherDisplay:10.37,2013-03-27 20:24:00,
2013-03-27 16:29:00,52.0,25.2,30.26,NW,308,3.5,3.5,35,0.00,CLR,,0.00,WeatherDisplay:10.37,2013-03-27 20:29:00,
2013-03-27 16:34:00,52.3,26.1,30.26,WSW,256,6.9,6.9,36,0.00,CLR,,0.00,WeatherDisplay:10.37,2013-03-27 20:34:00,
2013-03-27 16:39:00,52.5,25.6,30.26,NW,317,5.8,5.8,35,0.00,CLR,,0.00,WeatherDisplay:10.37,2013-03-27 20:39:00,
2013-03-27 16:44:00,52.6,26.4,30.26,NW,313,3.5,3.5,36,0.00,CLR,,0.00,WeatherDisplay:10.37,2013-03-27 20:44:00,
2013-03-27 16:49:00,52.5,25.6,30.25,North,355,3.5,3.5,35,0.00,CLR,,0.00,WeatherDisplay:10.37,2013-03-27 20:49:00,
2013-03-27 16:54:00,52.4,25.5,30.25,NNE,19,6.9,6.9,35,0.00,CLR,,0.00,WeatherDisplay:10.37,2013-03-27 20:54:00,
2013-03-27 16:59:00,52.3,24.7,30.25,NW,308,6.9,6.9,34,0.00,CLR,,0.00,WeatherDisplay:10.37,2013-03-27 20:59:00,
2013-03-27 17:04:00,52.3,24.7,30.25,NE,44,6.9,6.9,34,0.00,CLR,,0.00,WeatherDisplay:10.37,2013-03-27 21:04:00,
2013-03-27 17:09:00,52.1,24.6,30.25,WSW,246,5.0,5.0,34,0.00,CLR,,0.00,WeatherDisplay:10.37,2013-03-27 21:09:00,
2013-03-27 17:14:00,52.2,25.3,30.25,NNW,347,6.9,6.9,35,0.00,CLR,,0.00,WeatherDisplay:10.37,2013-03-27 21:14:00,
2013-03-27 17:19:00,52.2,26.0,30.25,WSW,237,4.6,4.6,36,0.00,CLR,,0.00,WeatherDisplay:10.37,2013-03-27 21:19:00,
2013-03-27 17:24:00,52.2,26.0,30.25,NW,319,5.0,5.0,36,0.00,CLR,,0.00,WeatherDisplay:10.37,2013-03-27 21:24:00,
2013-03-27 17:29:00,52.3,25.4,30.25,NNW,333,7.0,7.0,35,0.00,CLR,,0.00,WeatherDisplay:10.37,2013-03-27 21:29:00,
2013-03-27 17:34:00,52.2,25.3,30.25,WNW,284,6.9,6.9,35,0.00,CLR,,0.00,WeatherDisplay:10.37,2013-03-27 21:34:00,
2013-03-27 17:39:00,52.2,25.3,30.25,WSW,257,4.6,4.6,35,0.00,CLR,,0.00,WeatherDisplay:10.37,2013-03-27 21:39:00,
2013-03-27 17:44:00,52.2,26.7,30.25,West,272,2.0,4.0,37,0.00,CLR,,0.00,WeatherDisplay:10.37,2013-03-27 21:44:00,
2013-03-27 17:49:00,52.2,25.3,30.25,North,360,3.5,3.5,35,0.00,CLR,,0.00,WeatherDisplay:10.37,2013-03-27 21:49:00,
2013-03-27 17:54:00,52.1,25.3,30.25,WSW,256,3.5,3.5,35,0.00,CLR,,0.00,WeatherDisplay:10.37,2013-03-27 21:54:00,
2013-03-27 17:59:00,52.1,25.9,30.25,NW,305,3.5,3.5,36,0.00,CLR,,0.00,WeatherDisplay:10.37,2013-03-27 21:59:00,
2013-03-27 18:04:00,52.1,25.3,30.25,WSW,258,10.0,10.0,35,0.00,CLR,,0.00,WeatherDisplay:10.37,2013-03-27 22:04:00,
2013-03-27 18:09:00,52.0,25.8,30.25,NNW,343,5.0,5.0,36,0.00,CLR,,0.00,WeatherDisplay:10.37,2013-03-27 22:09:00,
2013-03-27 18:14:00,52.0,25.8,30.25,NNW,338,5.8,5.8,36,0.00,CLR,,0.00,WeatherDisplay:10.37,2013-03-27 22:14:00,
2013-03-27 18:19:00,51.8,25.0,30.25,WSW,239,3.5,3.5,35,0.00,CLR,,0.00,WeatherDisplay:10.37,2013-03-27 22:19:00,
2013-03-27 18:24:00,51.9,25.8,30.25,West,271,5.0,5.0,36,0.00,CLR,,0.00,WeatherDisplay:10.37,2013-03-27 22:24:00,
2013-03-27 18:29:00,51.9,25.8,30.25,NNW,344,3.5,3.5,36,0.00,CLR,,0.00,WeatherDisplay:10.37,2013-03-27 22:29:00,
2013-03-27 18:34:00,51.9,25.8,30.25,NNW,344,3.5,3.5,36,0.00,CLR,,0.00,WeatherDisplay:10.37,2013-03-27 22:34:00,
2013-03-27 18:39:00,51.8,26.3,30.25,SSW,212,3.5,3.5,37,0.00,CLR,,0.00,WeatherDisplay:10.37,2013-03-27 22:39:00,
2013-03-27 18:44:00,51.5,25.4,30.25,North,9,3.5,3.5,36,0.00,CLR,,0.00,WeatherDisplay:10.37,2013-03-27 22:44:00,
2013-03-27 18:49:00,51.4,26.0,30.25,NW,325,4.6,4.6,37,0.00,CLR,,0.00,WeatherDisplay:10.37,2013-03-27 22:49:00,
2013-03-27 18:54:00,51.2,25.8,30.25,NNW,327,5.0,5.0,37,0.00,CLR,,0.00,WeatherDisplay:10.37,2013-03-27 22:54:00,
2013-03-27 18:59:00,51.0,26.3,30.25,NNW,327,4.6,4.6,38,0.00,CLR,,0.00,WeatherDisplay:10.37,2013-03-27 22:59:00,
2013-03-27 19:04:00,50.8,24.8,30.25,NW,325,4.6,4.6,36,0.00,CLR,,0.00,WeatherDisplay:10.37,2013-03-27 23:04:00,
2013-03-27 19:09:00,50.6,24.6,30.25,NNW,341,2.3,2.3,36,0.00,CLR,,0.00,WeatherDisplay:10.37,2013-03-27 23:09:00,
2013-03-27 19:14:00,50.5,25.2,30.25,NNE,19,4.0,4.0,37,0.00,FEW,,0.00,WeatherDisplay:10.37,2013-03-27 23:14:00,
2013-03-27 19:19:00,50.5,25.2,30.25,North,351,8.1,8.1,37,0.00,FEW,,0.00,WeatherDisplay:10.37,2013-03-27 23:19:00,
2013-03-27 19:24:00,50.4,25.7,30.25,NNW,329,3.5,3.5,38,0.00,FEW,,0.00,WeatherDisplay:10.37,2013-03-27 23:24:00,
2013-03-27 19:29:00,50.2,25.5,30.25,WNW,296,1.2,1.2,38,0.00,FEW,,0.00,WeatherDisplay:10.37,2013-03-27 23:29:00,
2013-03-27 19:34:00,50.1,26.1,30.25,SW,234,3.5,3.5,39,0.00,FEW,,0.00,WeatherDisplay:10.37,2013-03-27 23:34:00,
2013-03-27 19:39:00,49.9,25.9,30.25,NNW,340,2.3,2.3,39,0.00,FEW,,0.00,WeatherDisplay:10.37,2013-03-27 23:39:00,
2013-03-27 19:44:00,49.7,25.7,30.25,NW,304,3.5,3.5,39,0.00,FEW,,0.00,WeatherDisplay:10.37,2013-03-27 23:44:00,
2013-03-27 19:49:00,49.5,25.5,30.25,NW,318,3.5,3.5,39,0.00,FEW,,0.00,WeatherDisplay:10.37,2013-03-27 23:49:00,
2013-03-27 19:54:00,49.4,26.1,30.25,NNW,333,3.5,3.5,40,0.00,FEW,,0.00,WeatherDisplay:10.37,2013-03-27 23:54:00,
2013-03-27 19:59:00,49.1,26.4,30.25,NNW,333,0.0,0.0,41,0.00,FEW,,0.00,WeatherDisplay:10.37,2013-03-27 23:59:00,
2013-03-27 20:04:00,49.0,26.3,30.25,NNW,333,1.2,1.2,41,0.00,FEW,,0.00,WeatherDisplay:10.37,2013-03-28 00:04:00,
2013-03-27 20:09:00,48.8,26.1,30.25,NNW,333,0.0,0.0,41,0.00,FEW,,0.00,WeatherDisplay:10.37,2013-03-28 00:09:00,
2013-03-27 20:14:00,48.6,26.5,30.25,NNW,333,0.0,0.0,42,0.00,FEW,,0.00,WeatherDisplay:10.37,2013-03-28 00:14:00,
2013-03-27 20:19:00,48.4,26.3,30.25,NNW,333,0.0,0.0,42,0.00,FEW,,0.00,WeatherDisplay:10.37,2013-03-28 00:19:00,
2013-03-27 20:24:00,48.1,26.1,30.26,NNW,333,0.0,0.0,42,0.00,FEW,,0.00,WeatherDisplay:10.37,2013-03-28 00:24:00,
2013-03-27 20:29:00,47.9,26.5,30.26,NNW,333,1.2,0.0,43,0.00,FEW,,0.00,WeatherDisplay:10.37,2013-03-28 00:29:00,
2013-03-27 20:34:00,47.6,26.7,30.26,NNW,333,0.0,0.0,44,0.00,FEW,,0.00,WeatherDisplay:10.37,2013-03-28 00:34:00,
2013-03-27 20:39:00,47.4,26.6,30.26,NNW,333,1.2,1.2,44,0.00,FEW,,0.00,WeatherDisplay:10.37,2013-03-28 00:39:00,
2013-03-27 20:44:00,47.1,26.3,30.26,NNW,342,1.2,0.0,44,0.00,FEW,,0.00,WeatherDisplay:10.37,2013-03-28 00:44:00,
2013-03-27 20:49:00,46.9,26.6,30.27,NW,318,1.2,1.2,45,0.00,FEW,,0.00,WeatherDisplay:10.37,2013-03-28 00:49:00,
2013-03-27 20:54:00,46.6,26.4,30.27,NNW,331,1.2,1.2,45,0.00,FEW,,0.00,WeatherDisplay:10.37,2013-03-28 00:54:00,
2013-03-27 20:59:00,46.5,26.3,30.27,North,360,0.0,0.0,45,0.00,FEW,,0.00,WeatherDisplay:10.37,2013-03-28 00:59:00,
2013-03-27 21:04:00,46.3,26.1,30.27,NW,319,1.2,0.0,45,0.00,FEW,,0.00,WeatherDisplay:10.37,2013-03-28 01:04:00,
2013-03-27 21:09:00,46.1,25.9,30.27,NW,319,0.0,0.0,45,0.00,FEW,,0.00,WeatherDisplay:10.37,2013-03-28 01:09:00,
2013-03-27 21:14:00,45.9,25.7,30.27,NW,304,1.2,1.2,45,0.00,CLR,,0.00,WeatherDisplay:10.37,2013-03-28 01:14:00,
2013-03-27 21:19:00,45.8,25.6,30.27,NW,304,0.0,0.0,45,0.00,CLR,,0.00,WeatherDisplay:10.37,2013-03-28 01:19:00,
2013-03-27 21:24:00,45.6,26.0,30.27,NW,304,0.0,0.0,46,0.00,CLR,,0.00,WeatherDisplay:10.37,2013-03-28 01:24:00,
2013-03-27 21:29:00,45.4,25.8,30.28,NW,304,1.2,1.2,46,0.00,CLR,,0.00,WeatherDisplay:10.37,2013-03-28 01:29:00,
2013-03-27 21:34:00,45.3,26.2,30.27,NW,304,0.0,0.0,47,0.00,CLR,,0.00,WeatherDisplay:10.37,2013-03-28 01:34:00,
2013-03-27 21:39:00,45.1,25.5,30.28,NW,304,0.0,0.0,46,0.00,CLR,,0.00,WeatherDisplay:10.37,2013-03-28 01:39:00,
2013-03-27 21:44:00,44.9,25.9,30.28,NW,304,1.2,0.0,47,0.00,CLR,,0.00,WeatherDisplay:10.37,2013-03-28 01:44:00,
2013-03-27 21:49:00,44.7,26.2,30.28,NW,304,0.0,0.0,48,0.00,CLR,,0.00,WeatherDisplay:10.37,2013-03-28 01:49:00,
2013-03-27 21:54:00,44.6,26.1,30.28,NW,304,0.0,0.0,48,0.00,CLR,,0.00,WeatherDisplay:10.37,2013-03-28 01:54:00,
2013-03-27 21:59:00,44.4,25.9,30.28,NW,304,0.0,0.0,48,0.00,CLR,,0.00,WeatherDisplay:10.37,2013-03-28 01:59:00,
2013-03-27 22:04:00,44.2,26.2,30.28,NW,304,0.0,0.0,49,0.00,CLR,,0.00,WeatherDisplay:10.37,2013-03-28 02:04:00,
2013-03-27 22:09:00,44.0,26.5,30.28,NW,304,0.0,0.0,50,0.00,CLR,,0.00,WeatherDisplay:10.37,2013-03-28 02:09:00,
2013-03-27 22:14:00,43.9,26.4,30.28,NW,304,0.0,0.0,50,0.00,FEW,,0.00,WeatherDisplay:10.37,2013-03-28 02:14:00,
2013-03-27 22:19:00,43.7,27.2,30.28,NW,304,0.0,0.0,52,0.00,FEW,,0.00,WeatherDisplay:10.37,2013-03-28 02:19:00,
2013-03-27 22:24:00,43.4,27.4,30.28,NW,304,1.2,1.2,53,0.00,FEW,,0.00,WeatherDisplay:10.37,2013-03-28 02:24:00,
2013-03-27 22:29:00,43.2,27.2,30.28,NW,304,0.0,0.0,53,0.00,FEW,,0.00,WeatherDisplay:10.37,2013-03-28 02:29:00,
2013-03-27 22:34:00,42.8,27.3,30.28,NW,304,0.0,0.0,54,0.00,FEW,,0.00,WeatherDisplay:10.37,2013-03-28 02:34:00,
2013-03-27 22:39:00,42.4,26.9,30.29,NW,304,1.2,0.0,54,0.00,FEW,,0.00,WeatherDisplay:10.37,2013-03-28 02:39:00,
2013-03-27 22:44:00,42.2,26.3,30.29,NW,321,2.3,2.3,53,0.00,FEW,,0.00,WeatherDisplay:10.37,2013-03-28 02:44:00,
2013-03-27 22:49:00,42.1,26.6,30.29,NW,321,2.3,2.3,54,0.00,FEW,,0.00,WeatherDisplay:10.37,2013-03-28 02:49:00,
2013-03-27 22:54:00,42.0,26.5,30.29,WNW,296,2.3,2.3,54,0.00,FEW,,0.00,WeatherDisplay:10.37,2013-03-28 02:54:00,
2013-03-27 22:59:00,42.0,26.1,30.29,NNW,329,1.2,0.0,53,0.00,FEW,,0.00,WeatherDisplay:10.37,2013-03-28 02:59:00,
2013-03-27 23:04:00,42.1,26.6,30.29,NW,323,2.3,2.3,54,0.00,FEW,,0.00,WeatherDisplay:10.37,2013-03-28 03:04:00,
2013-03-27 23:09:00,42.2,26.7,30.29,NW,323,2.3,2.3,54,0.00,FEW,,0.00,WeatherDisplay:10.37,2013-03-28 03:09:00,
2013-03-27 23:14:00,42.2,26.7,30.29,NW,325,2.3,2.3,54,0.00,CLR,,0.00,WeatherDisplay:10.37,2013-03-28 03:14:00,
2013-03-27 23:19:00,42.2,26.3,30.29,NW,321,5.0,5.0,53,0.00,CLR,,0.00,WeatherDisplay:10.37,2013-03-28 03:19:00,
2013-03-27 23:24:00,42.2,26.3,30.29,NW,319,1.2,1.2,53,0.00,CLR,,0.00,WeatherDisplay:10.37,2013-03-28 03:24:00,
2013-03-27 23:29:00,42.2,26.3,30.28,NW,319,0.0,0.0,53,0.00,CLR,,0.00,WeatherDisplay:10.37,2013-03-28 03:29:00,
2013-03-27 23:34:00,42.2,26.3,30.28,NNW,343,3.5,3.5,53,0.00,CLR,,0.00,WeatherDisplay:10.37,2013-03-28 03:34:00,
2013-03-27 23:39:00,42.2,26.3,30.28,NNW,329,2.3,2.3,53,0.00,CLR,,0.00,WeatherDisplay:10.37,2013-03-28 03:39:00,
2013-03-27 23:44:00,42.1,26.2,30.28,NNW,333,1.2,1.2,53,0.00,CLR,,0.00,WeatherDisplay:10.37,2013-03-28 03:44:00,
2013-03-27 23:49:00,42.0,26.5,30.28,NNW,333,2.3,2.3,54,0.00,CLR,,0.00,WeatherDisplay:10.37,2013-03-28 03:49:00,
2013-03-27 23:54:00,41.9,26.9,30.28,NNW,333,0.0,0.1,55,0.00,CLR,,0.00,WeatherDisplay:10.37,2013-03-28 03:54:00,
2013-03-27 23:59:00,41.8,26.8,30.28,NNW,333,2.3,2.3,55,0.00,CLR,,0.00,WeatherDisplay:10.37,2013-03-28 03:59:00,